createdAt,value
2018-03-06T00:00:56.115Z,99.99
2018-03-06T00:01:56.124Z,99.99
2018-03-06T00:02:56.149Z,99.99
2018-03-06T00:03:56.043Z,99.99
2018-03-06T00:05:56.282Z,99.99
2018-03-06T00:06:55.958Z,99.99
2018-03-06T00:07:55.964Z,99.99
2018-03-06T00:08:55.891Z,99.99
2018-03-06T00:09:55.918Z,99.99
2018-03-06T00:10:55.834Z,99.99
2018-03-06T00:11:55.865Z,99.99
2018-03-06T00:12:56.088Z,99.99
2018-03-06T00:13:55.761Z,99.99
2018-03-06T00:14:55.736Z,99.99
2018-03-06T00:15:55.819Z,99.99
2018-03-06T00:16:55.690Z,99.99
2018-03-06T00:17:55.653Z,99.99
2018-03-06T00:18:55.637Z,99.99
2018-03-06T00:19:56.260Z,99.99
2018-03-06T00:20:55.591Z,99.99
2018-03-06T00:21:55.569Z,99.99
2018-03-06T00:22:55.523Z,99.99
2018-03-06T00:23:55.508Z,99.99
2018-03-06T00:24:55.476Z,99.99
2018-03-06T00:25:55.557Z,99.99
2018-03-06T00:26:55.733Z,99.99
2018-03-06T00:27:55.505Z,99.99
2018-03-06T00:28:55.370Z,99.99
2018-03-06T00:29:55.352Z,99.99
2018-03-06T00:30:55.373Z,99.99
2018-03-06T00:31:55.303Z,99.99
2018-03-06T00:32:55.332Z,99.99
2018-03-06T00:33:55.555Z,99.99
2018-03-06T00:34:55.221Z,99.99
2018-03-06T00:35:55.196Z,99.99
2018-03-06T00:36:55.181Z,99.99
2018-03-06T00:37:55.143Z,99.99
2018-03-06T00:38:55.168Z,99.99
2018-03-06T00:39:55.091Z,99.99
2018-03-06T00:40:55.302Z,99.99
2018-03-06T00:41:55.043Z,99.99
2018-03-06T00:42:55.025Z,99.99
2018-03-06T00:43:55.093Z,99.99
2018-03-06T00:44:54.965Z,99.99
2018-03-06T00:45:54.940Z,99.99
2018-03-06T00:46:54.906Z,99.99
2018-03-06T00:47:55.192Z,99.99
2018-03-06T00:48:54.914Z,99.99
2018-03-06T00:49:54.828Z,99.99
2018-03-06T00:50:54.853Z,99.99
2018-03-06T00:51:54.789Z,99.99
2018-03-06T00:52:54.757Z,99.99
2018-03-06T00:53:54.726Z,99.99
2018-03-06T00:54:55.006Z,99.99
2018-03-06T00:55:54.687Z,99.99
2018-03-06T00:56:55.013Z,99.99
2018-03-06T00:57:54.626Z,99.99
2018-03-06T00:58:54.597Z,99.99
2018-03-06T00:59:54.567Z,99.99
2018-03-06T01:00:54.857Z,99.99
2018-03-06T01:01:54.524Z,99.99
2018-03-06T01:02:54.546Z,99.99
2018-03-06T01:03:54.472Z,99.99
2018-03-06T01:04:54.448Z,99.99
2018-03-06T01:05:54.426Z,99.99
2018-03-06T01:06:54.691Z,99.99
2018-03-06T01:07:54.365Z,99.99
2018-03-06T01:08:55.578Z,99.99
2018-03-06T01:09:54.294Z,99.99
2018-03-06T01:10:54.276Z,99.99
2018-03-06T01:11:54.255Z,99.99
2018-03-06T01:12:54.532Z,99.99
2018-03-06T01:13:54.251Z,99.99
2018-03-06T01:14:54.186Z,99.99
2018-03-06T01:15:54.705Z,99.99
2018-03-06T01:16:54.123Z,99.99
2018-03-06T01:17:54.098Z,99.99
2018-03-06T01:18:54.375Z,99.99
2018-03-06T01:19:54.046Z,99.99
2018-03-06T01:20:54.019Z,99.99
2018-03-06T01:21:54.037Z,99.99
2018-03-06T01:22:53.961Z,99.99
2018-03-06T01:23:53.933Z,99.99
2018-03-06T01:24:54.205Z,99.99
2018-03-06T01:25:53.935Z,99.99
2018-03-06T01:26:53.866Z,99.99
2018-03-06T01:27:53.840Z,99.99
2018-03-06T01:28:53.806Z,99.99
2018-03-06T01:29:53.890Z,99.99
2018-03-06T01:30:54.057Z,99.99
2018-03-06T01:31:53.730Z,99.99
2018-03-06T01:32:53.704Z,99.99
2018-03-06T01:33:53.778Z,99.99
2018-03-06T01:34:53.649Z,99.99
2018-03-06T01:35:53.623Z,99.99
2018-03-06T01:36:53.604Z,99.99
2018-03-06T01:37:53.859Z,99.99
2018-03-06T01:38:53.534Z,99.99
2018-03-06T01:39:53.563Z,99.99
2018-03-06T01:40:53.498Z,99.99
2018-03-06T01:41:53.468Z,99.99
2018-03-06T01:42:53.450Z,99.99
2018-03-06T01:43:53.409Z,99.99
2018-03-06T01:44:53.685Z,99.99
2018-03-06T01:45:53.413Z,99.99
2018-03-06T01:46:53.331Z,99.99
2018-03-06T01:47:53.303Z,99.99
2018-03-06T01:48:53.288Z,99.99
2018-03-06T01:49:53.264Z,99.99
2018-03-06T01:50:53.237Z,99.99
2018-03-06T01:51:53.650Z,99.99
2018-03-06T01:52:53.177Z,99.99
2018-03-06T01:53:53.153Z,99.99
2018-03-06T01:54:53.119Z,99.99
2018-03-06T01:55:53.094Z,99.99
2018-03-06T01:56:53.134Z,99.99
2018-03-06T01:57:53.069Z,99.99
2018-03-06T01:58:53.321Z,99.99
2018-03-06T01:59:52.998Z,99.99
2018-03-06T02:00:52.968Z,99.99
2018-03-06T02:01:52.945Z,99.99
2018-03-06T02:02:52.964Z,99.99
2018-03-06T02:03:52.885Z,99.99
2018-03-06T02:04:52.867Z,99.99
2018-03-06T02:05:53.076Z,99.99
2018-03-06T02:06:52.812Z,99.99
2018-03-06T02:07:52.856Z,99.99
2018-03-06T02:08:52.753Z,99.99
2018-03-06T02:09:52.732Z,99.99
2018-03-06T02:11:52.926Z,99.99
2018-03-06T02:12:52.654Z,99.99
2018-03-06T02:13:52.676Z,99.99
2018-03-06T02:14:52.603Z,99.99
2018-03-06T02:15:52.587Z,99.99
2018-03-06T02:16:52.591Z,99.99
2018-03-06T02:17:52.518Z,99.99
2018-03-06T02:18:52.800Z,99.99
2018-03-06T02:19:52.470Z,99.99
2018-03-06T02:20:52.428Z,99.99
2018-03-06T02:21:52.464Z,99.99
2018-03-06T02:22:52.387Z,99.99
2018-03-06T02:23:52.369Z,99.99
2018-03-06T02:24:52.642Z,99.99
2018-03-06T02:25:52.308Z,99.99
2018-03-06T02:26:52.271Z,99.99
2018-03-06T02:27:52.318Z,99.99
2018-03-06T02:28:52.227Z,99.99
2018-03-06T02:29:52.194Z,99.99
2018-03-06T02:30:52.419Z,99.99
2018-03-06T02:31:52.150Z,99.99
2018-03-06T02:32:52.127Z,99.99
2018-03-06T02:33:52.149Z,99.99
2018-03-06T02:34:52.067Z,99.99
2018-03-06T02:35:52.035Z,99.99
2018-03-06T02:36:52.321Z,99.99
2018-03-06T02:37:52.036Z,99.99
2018-03-06T02:38:51.975Z,99.99
2018-03-06T02:39:51.952Z,99.99
2018-03-06T02:40:51.919Z,99.99
2018-03-06T02:41:51.894Z,99.99
2018-03-06T02:42:52.211Z,99.99
2018-03-06T02:43:51.840Z,99.99
2018-03-06T02:44:51.810Z,99.99
2018-03-06T02:45:51.781Z,99.99
2018-03-06T02:46:51.761Z,99.99
2018-03-06T02:47:51.740Z,99.99
2018-03-06T02:48:52.104Z,99.99
2018-03-06T02:49:51.676Z,99.99
2018-03-06T02:50:51.641Z,99.99
2018-03-06T02:51:51.627Z,99.99
2018-03-06T02:52:51.597Z,99.99
2018-03-06T02:53:51.689Z,99.99
2018-03-06T02:54:51.850Z,99.99
2018-03-06T02:55:51.519Z,99.99
2018-03-06T02:56:51.490Z,99.99
2018-03-06T02:57:51.471Z,99.99
2018-03-06T02:58:51.812Z,99.99
2018-03-06T03:00:51.687Z,99.99
2018-03-06T03:01:51.385Z,99.99
2018-03-06T03:02:51.319Z,99.99
2018-03-06T03:03:51.394Z,99.99
2018-03-06T03:04:51.319Z,99.99
2018-03-06T03:05:51.247Z,99.99
2018-03-06T03:06:51.221Z,99.99
2018-03-06T03:07:51.496Z,99.99
2018-03-06T03:08:51.173Z,99.99
2018-03-06T03:09:51.137Z,99.99
2018-03-06T03:10:51.177Z,99.99
2018-03-06T03:11:51.102Z,99.99
2018-03-06T03:12:51.060Z,99.99
2018-03-06T03:13:51.047Z,99.99
2018-03-06T03:14:51.310Z,99.99
2018-03-06T03:15:51.001Z,99.99
2018-03-06T03:16:51.005Z,99.99
2018-03-06T03:17:50.929Z,99.99
2018-03-06T03:18:50.903Z,99.99
2018-03-06T03:19:50.872Z,99.99
2018-03-06T03:20:50.854Z,99.99
2018-03-06T03:21:51.285Z,99.99
2018-03-06T03:22:50.803Z,99.99
2018-03-06T03:23:50.775Z,99.99
2018-03-06T03:24:50.756Z,99.99
2018-03-06T03:25:50.726Z,99.99
2018-03-06T03:26:50.698Z,99.99
2018-03-06T03:27:50.721Z,99.99
2018-03-06T03:28:50.941Z,99.99
2018-03-06T03:29:50.615Z,99.99
2018-03-06T03:30:50.642Z,99.99
2018-03-06T03:31:50.565Z,99.99
2018-03-06T03:33:50.504Z,99.99
2018-03-06T03:34:50.477Z,99.99
2018-03-06T03:35:50.759Z,99.99
2018-03-06T03:36:50.468Z,99.99
2018-03-06T03:37:50.403Z,99.99
2018-03-06T03:38:50.380Z,99.99
2018-03-06T03:39:50.338Z,99.99
2018-03-06T03:40:50.312Z,99.99
2018-03-06T03:41:50.634Z,99.99
2018-03-06T03:42:50.414Z,99.99
2018-03-06T03:43:50.249Z,99.99
2018-03-06T03:44:50.264Z,99.99
2018-03-06T03:46:50.171Z,99.99
2018-03-06T03:47:50.133Z,99.99
2018-03-06T03:48:50.397Z,99.99
2018-03-06T03:49:50.096Z,99.99
2018-03-06T03:50:50.096Z,99.99
2018-03-06T03:51:50.043Z,99.99
2018-03-06T03:52:50.006Z,99.99
2018-03-06T03:53:49.974Z,99.99
2018-03-06T03:54:50.239Z,99.99
2018-03-06T03:55:49.921Z,99.99
2018-03-06T03:56:49.948Z,99.99
2018-03-06T03:57:49.937Z,99.99
2018-03-06T03:58:49.847Z,99.99
2018-03-06T03:59:49.862Z,99.99
2018-03-06T04:00:50.095Z,99.99
2018-03-06T04:01:50.103Z,99.99
2018-03-06T04:02:49.731Z,99.99
2018-03-06T04:03:49.700Z,99.99
2018-03-06T04:04:49.683Z,99.99
2018-03-06T04:05:49.661Z,99.99
2018-03-06T04:06:49.925Z,99.99
2018-03-06T04:08:49.623Z,99.99
2018-03-06T04:09:49.555Z,99.99
2018-03-06T04:10:49.517Z,99.99
2018-03-06T04:11:49.497Z,99.99
2018-03-06T04:12:49.718Z,99.99
2018-03-06T04:13:49.444Z,99.99
2018-03-06T04:14:49.513Z,99.99
2018-03-06T04:15:49.390Z,99.99
2018-03-06T04:16:49.362Z,99.99
2018-03-06T04:17:49.343Z,99.99
2018-03-06T04:18:49.312Z,99.99
2018-03-06T04:19:49.635Z,99.99
2018-03-06T04:20:49.252Z,99.99
2018-03-06T04:21:49.230Z,99.99
2018-03-06T04:22:49.200Z,99.99
2018-03-06T04:23:49.172Z,99.99
2018-03-06T04:24:49.144Z,99.99
2018-03-06T04:25:49.507Z,99.99
2018-03-06T04:26:49.098Z,99.99
2018-03-06T04:28:49.526Z,99.99
2018-03-06T04:29:49.015Z,99.99
2018-03-06T04:30:48.991Z,99.99
2018-03-06T04:31:49.015Z,99.99
2018-03-06T04:32:49.245Z,99.99
2018-03-06T04:33:48.931Z,99.99
2018-03-06T04:34:48.989Z,99.99
2018-03-06T04:35:48.859Z,99.99
2018-03-06T04:36:48.833Z,99.99
2018-03-06T04:37:48.808Z,99.99
2018-03-06T04:38:48.771Z,99.99
2018-03-06T04:40:49.017Z,99.99
2018-03-06T04:41:48.741Z,99.99
2018-03-06T04:42:48.672Z,99.99
2018-03-06T04:43:48.638Z,99.99
2018-03-06T04:44:48.623Z,99.99
2018-03-06T04:45:48.652Z,99.99
2018-03-06T04:46:48.577Z,99.99
2018-03-06T04:47:48.837Z,99.99
2018-03-06T04:48:48.514Z,99.99
2018-03-06T04:49:48.479Z,99.99
2018-03-06T04:50:48.550Z,99.99
2018-03-06T04:51:48.475Z,99.99
2018-03-06T04:52:48.390Z,99.99
2018-03-06T04:53:48.566Z,99.99
2018-03-06T04:55:48.674Z,99.99
2018-03-06T04:56:48.350Z,99.99
2018-03-06T04:58:48.234Z,99.99
2018-03-06T04:59:48.211Z,99.99
2018-03-06T05:00:48.189Z,99.99
2018-03-06T05:01:48.169Z,99.99
2018-03-06T05:02:48.490Z,99.99
2018-03-06T05:03:48.117Z,99.99
2018-03-06T05:05:48.064Z,99.99
2018-03-06T05:06:48.021Z,99.99
2018-03-06T05:07:47.989Z,99.99
2018-03-06T05:08:48.326Z,99.99
2018-03-06T05:09:47.933Z,99.99
2018-03-06T05:10:47.917Z,99.99
2018-03-06T05:11:47.893Z,99.99
2018-03-06T05:12:47.868Z,99.99
2018-03-06T05:13:47.844Z,99.99
2018-03-06T05:14:48.178Z,99.99
2018-03-06T05:15:47.896Z,99.99
2018-03-06T05:16:47.761Z,99.99
2018-03-06T05:17:47.734Z,99.99
2018-03-06T05:18:47.704Z,99.99
2018-03-06T05:19:47.667Z,99.99
2018-03-06T05:20:47.997Z,99.99
2018-03-06T05:22:47.592Z,99.99
2018-03-06T05:23:47.570Z,99.99
2018-03-06T05:24:47.557Z,99.99
2018-03-06T05:25:47.573Z,99.99
2018-03-06T05:26:47.797Z,99.99
2018-03-06T05:27:47.471Z,99.99
2018-03-06T05:28:47.432Z,99.99
2018-03-06T05:29:47.504Z,99.99
2018-03-06T05:30:47.487Z,99.99
2018-03-06T05:31:47.348Z,99.99
2018-03-06T05:32:47.622Z,99.99
2018-03-06T05:33:47.304Z,99.99
2018-03-06T05:34:47.301Z,99.99
2018-03-06T05:35:47.244Z,99.99
2018-03-06T05:36:47.265Z,99.99
2018-03-06T05:37:47.201Z,99.99
2018-03-06T05:38:47.172Z,99.99
2018-03-06T05:39:47.438Z,99.99
2018-03-06T05:40:47.170Z,99.99
2018-03-06T05:41:47.097Z,99.99
2018-03-06T05:42:47.053Z,99.99
2018-03-06T05:43:47.083Z,99.99
2018-03-06T05:44:47.005Z,99.99
2018-03-06T05:45:46.983Z,99.99
2018-03-06T05:47:47.181Z,99.99
2018-03-06T05:49:46.909Z,99.99
2018-03-06T05:50:46.832Z,99.99
2018-03-06T05:51:46.820Z,99.99
2018-03-06T05:52:46.835Z,99.99
2018-03-06T05:53:46.819Z,99.99
2018-03-06T05:54:46.973Z,99.99
2018-03-06T05:56:46.667Z,99.99
2018-03-06T05:57:46.693Z,99.99
2018-03-06T05:59:46.587Z,99.99
2018-03-06T06:00:46.563Z,99.99
2018-03-06T06:01:46.841Z,99.99
2018-03-06T06:02:46.505Z,99.99
2018-03-06T06:03:46.545Z,99.99
2018-03-06T06:04:46.451Z,99.99
2018-03-06T06:05:46.432Z,99.99
2018-03-06T06:06:46.412Z,99.99
2018-03-06T06:07:46.370Z,99.99
2018-03-06T06:08:47.003Z,99.99
2018-03-06T06:09:46.318Z,99.99
2018-03-06T06:10:46.302Z,99.99
2018-03-06T06:11:46.263Z,99.99
2018-03-06T06:12:46.236Z,99.99
2018-03-06T06:13:46.208Z,99.99
2018-03-06T06:14:46.241Z,99.99
2018-03-06T06:15:46.470Z,99.99
2018-03-06T06:16:46.128Z,99.99
2018-03-06T06:17:46.109Z,99.99
2018-03-06T06:18:46.095Z,99.99
2018-03-06T06:20:46.088Z,99.99
2018-03-06T06:21:46.013Z,99.99
2018-03-06T06:22:46.288Z,99.99
2018-03-06T06:23:45.958Z,99.99
2018-03-06T06:24:45.931Z,99.99
2018-03-06T06:25:45.910Z,99.99
2018-03-06T06:26:45.972Z,99.99
2018-03-06T06:27:45.855Z,99.99
2018-03-06T06:28:46.122Z,99.99
2018-03-06T06:29:45.802Z,99.99
2018-03-06T06:30:45.830Z,99.99
2018-03-06T06:31:45.793Z,99.99
2018-03-06T06:32:45.717Z,99.99
2018-03-06T06:33:45.831Z,99.99
2018-03-06T06:34:45.892Z,99.99
2018-03-06T06:35:45.617Z,99.99
2018-03-06T06:36:45.646Z,99.99
2018-03-06T06:37:45.703Z,99.99
2018-03-06T06:38:45.798Z,99.99
2018-03-06T06:39:45.713Z,99.99
2018-03-06T06:40:45.958Z,99.99
2018-03-06T06:41:45.609Z,99.99
2018-03-06T06:42:45.553Z,99.99
2018-03-06T06:43:45.475Z,99.99
2018-03-06T06:44:45.560Z,99.99
2018-03-06T06:45:45.347Z,99.99
2018-03-06T06:46:45.852Z,99.99
2018-03-06T06:47:45.512Z,99.99
2018-03-06T06:48:45.305Z,99.99
2018-03-06T06:49:45.548Z,99.99
2018-03-06T06:50:45.303Z,99.99
2018-03-06T06:51:45.224Z,99.99
2018-03-06T06:52:45.607Z,99.99
2018-03-06T06:53:45.471Z,99.99
2018-03-06T06:54:45.107Z,99.99
2018-03-06T06:55:45.084Z,99.99
2018-03-06T06:56:45.098Z,99.99
2018-03-06T06:57:45.208Z,99.99
2018-03-06T06:58:45.326Z,99.99
2018-03-06T06:59:44.977Z,99.99
2018-03-06T07:00:44.948Z,99.99
2018-03-06T07:01:44.927Z,99.99
2018-03-06T07:03:44.934Z,99.99
2018-03-06T07:04:44.846Z,99.99
2018-03-06T07:05:45.119Z,99.99
2018-03-06T07:06:44.795Z,99.99
2018-03-06T07:07:44.839Z,99.99
2018-03-06T07:08:44.752Z,99.99
2018-03-06T07:09:44.878Z,99.99
2018-03-06T07:10:44.693Z,99.99
2018-03-06T07:11:44.662Z,99.99
2018-03-06T07:12:46.186Z,99.99
2018-03-06T07:13:44.620Z,99.99
2018-03-06T07:14:44.582Z,99.99
2018-03-06T07:15:44.582Z,99.99
2018-03-06T07:16:44.573Z,99.99
2018-03-06T07:17:44.505Z,99.99
2018-03-06T07:18:44.528Z,99.99
2018-03-06T07:19:44.704Z,99.99
2018-03-06T07:20:44.444Z,99.99
2018-03-06T07:21:44.401Z,99.99
2018-03-06T07:22:44.375Z,99.99
2018-03-06T07:23:44.398Z,99.99
2018-03-06T07:24:44.388Z,99.99
2018-03-06T07:25:44.472Z,99.99
2018-03-06T07:26:44.791Z,99.99
2018-03-06T07:27:44.472Z,99.99
2018-03-06T07:28:44.643Z,99.99
2018-03-06T07:29:44.537Z,99.99
2018-03-06T07:30:44.299Z,99.99
2018-03-06T07:31:44.161Z,99.99
2018-03-06T07:32:44.133Z,99.99
2018-03-06T07:33:44.407Z,99.99
2018-03-06T07:34:44.076Z,98.91
2018-03-06T07:35:44.116Z,97.02
2018-03-06T07:36:44.036Z,94.98
2018-03-06T07:37:44.734Z,93.37
2018-03-06T07:38:43.979Z,91.90
2018-03-06T07:39:43.963Z,90.67
2018-03-06T07:40:44.239Z,88.68
2018-03-06T07:41:43.959Z,88.63
2018-03-06T07:42:43.885Z,87.87
2018-03-06T07:43:43.855Z,86.16
2018-03-06T07:44:43.833Z,85.88
2018-03-06T07:45:43.806Z,84.94
2018-03-06T07:46:44.108Z,85.50
2018-03-06T07:47:43.820Z,85.17
2018-03-06T07:48:43.749Z,84.78
2018-03-06T07:49:43.726Z,82.89
2018-03-06T07:50:43.696Z,82.13
2018-03-06T07:51:43.681Z,82.13
2018-03-06T07:52:44.003Z,81.56
2018-03-06T07:53:43.627Z,81.32
2018-03-06T07:54:43.609Z,80.94
2018-03-06T07:55:43.588Z,79.99
2018-03-06T07:56:43.564Z,80.27
2018-03-06T07:57:43.555Z,79.23
2018-03-06T07:59:44.169Z,78.19
2018-03-06T08:00:43.544Z,78.28
2018-03-06T08:01:43.562Z,79.52
2018-03-06T08:03:43.653Z,77.90
2018-03-06T08:04:43.410Z,78.56
2018-03-06T08:05:43.688Z,78.80
2018-03-06T08:06:43.419Z,77.75
2018-03-06T08:07:43.333Z,76.99
2018-03-06T08:08:43.313Z,76.90
2018-03-06T08:09:43.290Z,76.61
2018-03-06T08:10:43.276Z,76.04
2018-03-06T08:11:43.596Z,76.61
2018-03-06T08:12:43.285Z,75.19
2018-03-06T08:13:43.221Z,73.76
2018-03-06T08:14:43.198Z,73.76
2018-03-06T08:15:43.200Z,74.52
2018-03-06T08:16:43.214Z,75.19
2018-03-06T08:17:43.436Z,74.15
2018-03-06T08:18:43.122Z,74.52
2018-03-06T08:20:43.194Z,73.67
2018-03-06T08:21:43.061Z,72.44
2018-03-06T08:22:43.048Z,72.66
2018-03-06T08:23:43.544Z,71.96
2018-03-06T08:24:43.186Z,72.47
2018-03-06T08:25:43.199Z,72.28
2018-03-06T08:26:43.199Z,72.75
2018-03-06T08:28:42.946Z,70.67
2018-03-06T08:29:43.272Z,69.53
2018-03-06T08:30:42.895Z,70.48
2018-03-06T08:31:42.869Z,69.46
2018-03-06T08:32:42.861Z,68.80
2018-03-06T08:33:42.832Z,67.28
2018-03-06T08:34:42.836Z,67.28
2018-03-06T08:35:42.862Z,66.39
2018-03-06T08:36:43.084Z,67.72
2018-03-06T08:37:42.783Z,68.39
2018-03-06T08:38:42.766Z,66.58
2018-03-06T08:39:42.732Z,66.80
2018-03-06T08:40:42.771Z,67.09
2018-03-06T08:41:42.752Z,67.15
2018-03-06T08:42:42.986Z,68.58
2018-03-06T08:43:42.721Z,68.13
2018-03-06T08:44:42.649Z,67.91
2018-03-06T08:45:42.630Z,66.52
2018-03-06T08:46:42.606Z,66.42
2018-03-06T08:47:42.593Z,66.01
2018-03-06T08:49:42.923Z,66.11
2018-03-06T08:50:42.543Z,66.30
2018-03-06T08:51:42.533Z,66.52
2018-03-06T08:52:42.521Z,66.80
2018-03-06T08:53:42.501Z,67.00
2018-03-06T08:54:42.469Z,67.47
2018-03-06T08:55:42.512Z,66.42
2018-03-06T08:56:42.752Z,66.14
2018-03-06T08:57:42.475Z,65.86
2018-03-06T08:58:42.420Z,64.62
2018-03-06T08:59:42.401Z,64.62
2018-03-06T09:00:42.434Z,64.69
2018-03-06T09:01:42.359Z,66.20
2018-03-06T09:02:42.651Z,66.87
2018-03-06T09:03:42.382Z,66.80
2018-03-06T09:04:42.309Z,65.57
2018-03-06T09:05:42.337Z,65.47
2018-03-06T09:06:42.288Z,64.90
2018-03-06T09:08:42.593Z,64.81
2018-03-06T09:09:42.234Z,64.46
2018-03-06T09:10:42.243Z,64.34
2018-03-06T09:11:42.209Z,64.81
2018-03-06T09:12:42.193Z,63.67
2018-03-06T09:13:42.177Z,63.57
2018-03-06T09:14:42.512Z,63.60
2018-03-06T09:15:42.147Z,63.13
2018-03-06T09:16:42.115Z,63.13
2018-03-06T09:17:42.108Z,61.32
2018-03-06T09:19:42.127Z,59.07
2018-03-06T09:20:42.353Z,60.02
2018-03-06T09:21:44.116Z,59.58
2018-03-06T09:22:42.222Z,59.17
2018-03-06T09:23:42.020Z,59.14
2018-03-06T09:24:42.007Z,60.75
2018-03-06T09:25:42.036Z,61.07
2018-03-06T09:26:42.267Z,59.83
2018-03-06T09:27:41.960Z,59.99
2018-03-06T09:28:41.924Z,59.52
2018-03-06T09:29:41.919Z,59.14
2018-03-06T09:30:41.914Z,59.80
2018-03-06T09:31:42.001Z,59.71
2018-03-06T09:32:41.883Z,59.80
2018-03-06T09:33:42.160Z,58.88
2018-03-06T09:34:41.891Z,59.20
2018-03-06T09:35:41.828Z,58.03
2018-03-06T09:36:41.804Z,58.59
2018-03-06T09:37:41.851Z,58.44
2018-03-06T09:38:41.779Z,59.07
2018-03-06T09:39:42.077Z,59.27
2018-03-06T09:40:41.762Z,59.10
2018-03-06T09:41:41.744Z,58.44
2018-03-06T09:42:41.722Z,58.44
2018-03-06T09:43:41.782Z,58.98
2018-03-06T09:44:41.709Z,59.14
2018-03-06T09:45:41.942Z,60.69
2018-03-06T09:46:41.680Z,60.78
2018-03-06T09:47:41.661Z,59.77
2018-03-06T09:48:41.693Z,59.93
2018-03-06T09:49:41.620Z,60.31
2018-03-06T09:50:41.658Z,59.64
2018-03-06T09:51:41.908Z,59.39
2018-03-06T09:52:41.594Z,58.18
2018-03-06T09:53:41.577Z,56.11
2018-03-06T09:54:41.575Z,55.32
2018-03-06T09:55:41.605Z,55.22
2018-03-06T09:56:41.552Z,55.13
2018-03-06T09:57:41.571Z,55.22
2018-03-06T09:58:41.802Z,56.44
2018-03-06T09:59:41.489Z,57.58
2018-03-06T10:00:41.509Z,57.58
2018-03-06T10:02:41.456Z,58.22
2018-03-06T10:03:41.494Z,58.98
2018-03-06T10:04:41.834Z,59.55
2018-03-06T10:05:41.402Z,59.67
2018-03-06T10:06:41.393Z,57.36
2018-03-06T10:07:41.387Z,57.10
2018-03-06T10:08:41.378Z,56.44
2018-03-06T10:09:41.374Z,57.48
2018-03-06T10:10:41.454Z,58.06
2018-03-06T10:11:41.651Z,58.06
2018-03-06T10:12:41.325Z,58.25
2018-03-06T10:13:41.322Z,57.89
2018-03-06T10:14:41.291Z,57.20
2018-03-06T10:15:41.630Z,56.85
2018-03-06T10:16:41.263Z,56.53
2018-03-06T10:17:41.256Z,57.20
2018-03-06T10:18:41.490Z,57.55
2018-03-06T10:19:41.236Z,58.59
2018-03-06T10:20:41.212Z,59.27
2018-03-06T10:21:41.241Z,58.81
2018-03-06T10:22:41.236Z,58.62
2018-03-06T10:23:41.639Z,58.06
2018-03-06T10:24:41.236Z,57.77
2018-03-06T10:25:41.506Z,57.29
2018-03-06T10:26:41.230Z,57.29
2018-03-06T10:27:41.134Z,56.85
2018-03-06T10:28:41.113Z,57.20
2018-03-06T10:29:41.158Z,57.87
2018-03-06T10:30:41.142Z,57.67
2018-03-06T10:31:41.377Z,58.06
2018-03-06T10:32:41.082Z,57.39
2018-03-06T10:33:41.047Z,56.27
2018-03-06T10:34:41.038Z,54.94
2018-03-06T10:35:41.022Z,55.32
2018-03-06T10:36:41.056Z,55.13
2018-03-06T10:37:41.004Z,54.68
2018-03-06T10:38:41.298Z,53.76
2018-03-06T10:39:40.973Z,52.71
2018-03-06T10:40:40.965Z,52.42
2018-03-06T10:41:40.943Z,52.40
2018-03-06T10:42:40.984Z,53.73
2018-03-06T10:43:40.928Z,54.56
2018-03-06T10:44:41.154Z,55.90
2018-03-06T10:45:40.896Z,55.51
2018-03-06T10:46:40.887Z,54.25
2018-03-06T10:47:40.874Z,53.87
2018-03-06T10:48:41.241Z,54.25
2018-03-06T10:49:41.247Z,53.77
2018-03-06T10:50:41.247Z,54.06
2018-03-06T10:51:40.927Z,54.25
2018-03-06T10:52:40.813Z,54.15
2018-03-06T10:53:44.444Z,53.49
2018-03-06T10:54:41.640Z,55.49
2018-03-06T10:55:42.329Z,55.20
2018-03-06T10:56:41.930Z,55.93
2018-03-06T10:58:40.795Z,57.48
2018-03-06T10:59:40.742Z,57.48
2018-03-06T11:00:40.723Z,57.96
2018-03-06T11:01:40.727Z,57.48
2018-03-06T11:02:41.161Z,56.72
2018-03-06T11:03:40.752Z,57.58
2018-03-06T11:04:40.725Z,57.20
2018-03-06T11:05:40.669Z,57.67
2018-03-06T11:06:40.707Z,55.87
2018-03-06T11:07:40.687Z,55.68
2018-03-06T11:08:40.931Z,56.46
2018-03-06T11:09:40.623Z,56.65
2018-03-06T11:10:40.605Z,55.70
2018-03-06T11:11:40.603Z,55.04
2018-03-06T11:12:40.641Z,54.59
2018-03-06T11:13:40.577Z,53.83
2018-03-06T11:14:40.907Z,53.06
2018-03-06T11:15:40.539Z,51.76
2018-03-06T11:16:40.523Z,51.56
2018-03-06T11:17:40.521Z,52.01
2018-03-06T11:19:40.492Z,54.66
2018-03-06T11:20:40.837Z,55.13
2018-03-06T11:21:40.484Z,55.51
2018-03-06T11:22:40.470Z,54.78
2018-03-06T11:23:40.439Z,53.64
2018-03-06T11:24:40.429Z,52.87
2018-03-06T11:25:40.422Z,53.54
2018-03-06T11:26:40.760Z,53.47
2018-03-06T11:27:40.397Z,52.80
2018-03-06T11:28:40.382Z,52.87
2018-03-06T11:29:40.413Z,53.16
2018-03-06T11:30:40.373Z,53.73
2018-03-06T11:31:40.358Z,53.28
2018-03-06T11:33:40.620Z,51.66
2018-03-06T11:34:40.363Z,51.40
2018-03-06T11:36:40.291Z,51.76
2018-03-06T11:37:40.278Z,52.04
2018-03-06T11:38:40.259Z,51.66
2018-03-06T11:39:40.603Z,51.76
2018-03-06T11:40:40.247Z,52.49
2018-03-06T11:41:40.238Z,52.33
2018-03-06T11:42:40.232Z,51.95
2018-03-06T11:43:40.282Z,50.92
2018-03-06T11:44:40.213Z,50.71
2018-03-06T11:46:40.553Z,52.71
2018-03-06T11:47:40.182Z,52.42
2018-03-06T11:48:40.173Z,51.47
2018-03-06T11:50:40.169Z,53.16
2018-03-06T11:51:40.181Z,53.16
2018-03-06T11:53:40.412Z,52.87
2018-03-06T11:54:40.084Z,52.14
2018-03-06T11:55:40.083Z,51.59
2018-03-06T11:56:40.118Z,50.45
2018-03-06T11:57:40.058Z,50.52
2018-03-06T11:58:40.062Z,51.56
2018-03-06T11:59:40.355Z,51.37
2018-03-06T12:01:40.021Z,51.25
2018-03-06T12:02:40.072Z,52.20
2018-03-06T12:03:40.046Z,52.04
2018-03-06T12:04:40.021Z,51.28
2018-03-06T12:05:40.216Z,49.80
2018-03-06T12:06:39.962Z,49.99
2018-03-06T12:07:39.994Z,49.54
2018-03-06T12:08:39.941Z,49.42
2018-03-06T12:09:39.939Z,49.52
2018-03-06T12:11:40.216Z,50.26
2018-03-06T12:12:39.900Z,51.40
2018-03-06T12:13:39.944Z,50.35
2018-03-06T12:14:40.117Z,49.97
2018-03-06T12:15:39.869Z,50.45
2018-03-06T12:16:39.872Z,50.38
2018-03-06T12:17:40.518Z,50.67
2018-03-06T12:18:39.951Z,49.33
2018-03-06T12:19:39.826Z,48.57
2018-03-06T12:20:39.806Z,48.75
2018-03-06T12:21:39.795Z,49.23
2018-03-06T12:22:39.846Z,49.80
2018-03-06T12:23:40.088Z,50.76
2018-03-06T12:24:39.773Z,49.71
2018-03-06T12:25:39.770Z,50.35
2018-03-06T12:26:39.745Z,51.31
2018-03-06T12:27:39.744Z,51.59
2018-03-06T12:28:40.231Z,51.18
2018-03-06T12:29:40.024Z,52.84
2018-03-06T12:30:39.724Z,55.22
2018-03-06T12:31:39.701Z,55.70
2018-03-06T12:32:39.690Z,55.83
2018-03-06T12:33:39.686Z,55.83
2018-03-06T12:34:39.723Z,55.07
2018-03-06T12:35:39.963Z,54.59
2018-03-06T12:36:39.656Z,53.47
2018-03-06T12:37:39.650Z,52.71
2018-03-06T12:38:39.687Z,51.88
2018-03-06T12:39:39.628Z,52.04
2018-03-06T12:40:39.638Z,52.42
2018-03-06T12:41:39.923Z,52.49
2018-03-06T12:42:39.595Z,53.73
2018-03-06T12:43:39.588Z,54.85
2018-03-06T12:44:40.016Z,55.68
2018-03-06T12:45:39.547Z,55.90
2018-03-06T12:46:39.644Z,56.85
2018-03-06T12:49:39.811Z,55.35
2018-03-06T12:50:39.515Z,55.35
2018-03-06T12:51:39.540Z,55.54
2018-03-06T12:52:39.483Z,55.35
2018-03-06T12:53:39.464Z,55.07
2018-03-06T12:54:39.478Z,54.97
2018-03-06T12:55:39.438Z,55.19
2018-03-06T12:56:39.718Z,54.52
2018-03-06T12:57:39.463Z,54.49
2018-03-06T12:58:39.416Z,55.00
2018-03-06T12:59:39.397Z,54.68
2018-03-06T13:00:40.639Z,54.68
2018-03-06T13:01:40.627Z,54.97
2018-03-06T13:02:39.668Z,55.54
2018-03-06T13:03:39.461Z,55.44
2018-03-06T13:07:39.659Z,54.80
2018-03-06T13:08:39.597Z,55.35
2018-03-06T13:09:39.272Z,55.80
2018-03-06T13:10:39.278Z,55.70
2018-03-06T13:11:39.264Z,55.73
2018-03-06T13:12:39.503Z,55.16
2018-03-06T13:13:39.243Z,55.35
2018-03-06T13:14:39.229Z,56.11
2018-03-06T13:15:39.519Z,55.83
2018-03-06T13:16:39.208Z,55.83
2018-03-06T13:17:39.190Z,55.63
2018-03-06T13:18:39.789Z,55.07
2018-03-06T13:19:39.171Z,55.35
2018-03-06T13:20:39.162Z,55.63
2018-03-06T13:21:39.208Z,55.16
2018-03-06T13:22:39.437Z,55.44
2018-03-06T13:23:39.124Z,55.73
2018-03-06T13:24:39.164Z,55.07
2018-03-06T13:25:39.098Z,55.26
2018-03-06T13:26:39.071Z,54.78
2018-03-06T13:27:39.064Z,55.16
2018-03-06T13:28:39.051Z,54.59
2018-03-06T13:29:39.341Z,54.61
2018-03-06T13:30:39.085Z,54.33
2018-03-06T13:31:39.022Z,53.64
2018-03-06T13:32:39.073Z,53.16